Time;durP1;ratioP1;P1;durP2;ratioP2;P2;SDS_P1;SDS_P2;PMS_P1;PMS_P2;Temp;Humidity;BMP_temperature;BMP_pressure;BME280_temperature;BME280_humidity;BME280_pressure;Samples;Min_cycle;Max_cycle;Signal;HPM_P1;HPM_P2
2022/07/17 00:01:47;;;;;;;10.13;9.82;;;16.40;99.90;;;;;;5113307;28;20285;-88
2022/07/17 00:04:16;;;;;;;10.05;9.75;;;16.40;99.90;;;;;;5106423;28;20237;-87
2022/07/17 00:06:57;;;;;;;9.98;9.68;;;16.30;99.90;;;;;;5106182;28;20299;-87
2022/07/17 00:09:25;;;;;;;10.02;9.73;;;16.10;99.90;;;;;;5104975;28;20233;-87
2022/07/17 00:11:53;;;;;;;10.00;9.70;;;16.10;99.90;;;;;;5109156;28;20225;-87
2022/07/17 00:14:23;;;;;;;10.20;9.90;;;16.00;99.90;;;;;;5118088;28;20269;-88
2022/07/17 00:16:53;;;;;;;10.30;10.00;;;16.00;99.90;;;;;;5118630;28;20253;-87
2022/07/17 00:19:21;;;;;;;10.30;10.00;;;15.90;99.90;;;;;;5107976;28;20241;-87
2022/07/17 00:24:38;;;;;;;10.20;9.90;;;15.80;99.90;;;;;;5107696;28;20229;-88
2022/07/17 00:27:08;;;;;;;10.00;9.70;;;15.80;99.90;;;;;;5108222;28;20252;-87
2022/07/17 00:29:38;;;;;;;9.90;9.60;;;15.70;99.90;;;;;;5106896;28;20256;-87
2022/07/17 00:32:07;;;;;;;10.00;9.70;;;15.60;99.90;;;;;;5110563;28;20236;-87
2022/07/17 00:34:36;;;;;;;10.20;9.90;;;15.60;99.90;;;;;;5123643;28;20208;-90
2022/07/17 00:37:14;;;;;;;10.15;9.85;;;15.50;99.90;;;;;;5123827;28;20232;-89
2022/07/17 00:39:44;;;;;;;10.23;9.93;;;15.40;99.90;;;;;;5124119;28;20225;-90
2022/07/17 00:42:13;;;;;;;10.13;9.82;;;15.40;99.90;;;;;;5123897;28;20240;-91
2022/07/17 00:44:42;;;;;;;10.10;9.80;;;15.30;99.90;;;;;;5123337;28;20209;-90
2022/07/17 00:47:23;;;;;;;10.27;9.98;;;15.20;99.90;;;;;;5121210;28;20218;-87
2022/07/17 00:49:51;;;;;;;10.05;9.75;;;15.30;99.90;;;;;;5111747;28;20255;-87
2022/07/17 00:52:22;;;;;;;10.02;9.73;;;15.30;99.90;;;;;;5108149;28;20253;-87
2022/07/17 00:54:51;;;;;;;10.05;9.75;;;15.30;99.90;;;;;;5107099;28;20342;-87
2022/07/17 00:57:21;;;;;;;10.23;9.93;;;15.30;99.90;;;;;;5113176;28;20252;-89
2022/07/17 00:59:49;;;;;;;10.13;9.82;;;15.30;99.90;;;;;;5116524;28;20229;-87
2022/07/17 01:02:17;;;;;;;9.82;9.52;;;15.30;99.90;;;;;;5116867;28;20229;-89
2022/07/17 01:04:47;;;;;;;10.00;9.70;;;15.30;99.90;;;;;;5112143;28;20229;-87
2022/07/17 01:07:18;;;;;;;10.07;9.77;;;15.20;99.90;;;;;;5107570;28;20263;-87
2022/07/17 01:12:32;;;;;;;9.88;9.57;;;15.00;99.90;;;;;;5108643;28;20221;-87
2022/07/17 01:15:04;;;;;;;9.60;9.30;;;14.90;99.90;;;;;;5107255;28;20230;-87
2022/07/17 01:17:41;;;;;;;9.90;9.60;;;14.90;99.90;;;;;;5127091;22;20312;-91
2022/07/17 01:20:13;;;;;;;9.68;9.38;;;14.80;99.90;;;;;;5082284;28;20229;-89
2022/07/17 01:22:46;;;;;;;9.88;9.57;;;14.70;99.90;;;;;;5081959;28;20253;-88
2022/07/17 01:25:21;;;;;;;9.80;9.50;;;14.60;99.90;;;;;;5083529;28;20234;-88
2022/07/17 01:27:56;;;;;;;9.57;9.27;;;14.60;99.90;;;;;;5101846;28;20237;-87
2022/07/17 01:30:36;;;;;;;9.70;9.40;;;14.50;99.90;;;;;;5099085;28;20297;-88
2022/07/17 01:33:07;;;;;;;9.70;9.40;;;14.50;99.90;;;;;;5099032;28;20318;-88
2022/07/17 01:35:37;;;;;;;9.53;9.23;;;14.40;99.90;;;;;;5088370;28;20218;-88
2022/07/17 01:38:06;;;;;;;9.70;9.40;;;14.40;99.90;;;;;;5081797;28;20241;-88
2022/07/17 01:40:40;;;;;;;9.43;9.13;;;14.40;99.90;;;;;;5084497;28;20230;-88
2022/07/17 01:43:11;;;;;;;9.60;9.30;;;14.30;99.90;;;;;;5097619;28;20218;-88
2022/07/17 01:45:44;;;;;;;9.98;9.68;;;14.30;99.90;;;;;;5086098;28;20261;-88
2022/07/17 01:48:33;;;;;;;9.70;9.40;;;14.20;99.90;;;;;;5082151;28;20230;-89
2022/07/17 01:51:07;;;;;;;9.80;9.50;;;14.20;99.90;;;;;;5083265;28;20345;-88
2022/07/17 01:53:37;;;;;;;9.80;9.50;;;14.20;99.90;;;;;;5085212;28;20246;-91
2022/07/17 01:56:05;;;;;;;9.90;9.60;;;14.10;99.90;;;;;;5092722;28;20218;-89
2022/07/17 01:58:35;;;;;;;10.00;9.70;;;14.00;99.90;;;;;;5089611;28;20234;-88
2022/07/17 02:01:03;;;;;;;10.13;9.83;;;13.90;99.90;;;;;;5090533;28;20226;-89
2022/07/17 02:03:31;;;;;;;10.10;9.80;;;14.00;99.90;;;;;;5083611;28;20230;-88
2022/07/17 02:06:00;;;;;;;10.10;9.80;;;13.90;99.90;;;;;;5086870;28;20231;-89
2022/07/17 02:08:29;;;;;;;10.00;9.70;;;13.80;99.90;;;;;;5092075;28;20234;-88
2022/07/17 02:10:58;;;;;;;10.10;9.80;;;13.80;99.90;;;;;;5097506;28;20244;-86
2022/07/17 02:13:26;;;;;;;10.00;9.70;;;13.90;99.90;;;;;;5099519;28;20238;-88
2022/07/17 02:15:54;;;;;;;9.77;9.47;;;13.80;99.90;;;;;;5098817;28;20206;-87
2022/07/17 02:18:21;;;;;;;9.70;9.40;;;13.90;99.90;;;;;;5099961;28;20248;-87
2022/07/17 02:20:49;;;;;;;9.90;9.60;;;13.80;99.90;;;;;;5100132;28;20221;-88
2022/07/17 02:23:19;;;;;;;9.80;9.50;;;13.70;99.90;;;;;;5100931;28;20237;-88
2022/07/17 02:25:46;;;;;;;9.90;9.60;;;13.60;99.90;;;;;;5100357;28;20206;-86
2022/07/17 02:28:16;;;;;;;9.90;9.60;;;13.50;99.90;;;;;;5100170;28;20212;-87
2022/07/17 02:30:43;;;;;;;9.83;9.53;;;13.50;99.90;;;;;;5100568;28;20236;-86
2022/07/17 02:33:11;;;;;;;9.70;9.40;;;13.60;99.90;;;;;;5099961;28;20234;-86
2022/07/17 02:35:39;;;;;;;9.80;9.50;;;13.60;99.90;;;;;;5099938;28;20202;-86
2022/07/17 02:38:07;;;;;;;9.70;9.40;;;13.60;99.90;;;;;;5100280;28;20218;-87
2022/07/17 02:40:35;;;;;;;9.87;9.57;;;13.50;99.90;;;;;;5100223;28;20213;-89
2022/07/17 02:43:04;;;;;;;9.63;9.33;;;13.50;99.90;;;;;;5094800;28;20233;-88
2022/07/17 02:45:33;;;;;;;9.93;9.63;;;13.40;99.90;;;;;;5098158;28;20205;-89
2022/07/17 02:48:07;;;;;;;9.60;9.30;;;13.40;99.90;;;;;;5119611;27;20297;-87
2022/07/17 02:51:04;;;;;;;9.70;9.40;;;13.40;99.90;;;;;;5121240;27;20256;-89
2022/07/17 02:56:47;;;;;;;9.57;9.27;;;13.30;99.90;;;;;;5096887;28;20218;-89
2022/07/17 02:59:42;;;;;;;9.80;9.50;;;13.20;99.90;;;;;;5101920;28;20236;-89
2022/07/17 03:12:00;;;;;;;9.70;9.40;;;13.00;99.90;;;;;;5093202;28;20243;-89
2022/07/17 03:17:52;;;;;;;9.60;9.30;;;12.80;99.90;;;;;;5092546;28;20232;-89
2022/07/17 03:24:21;;;;;;;9.80;9.50;;;12.70;99.90;;;;;;5108470;28;20228;-89
2022/07/17 03:30:06;;;;;;;9.77;9.47;;;12.70;99.90;;;;;;5086118;22;20312;-89
2022/07/17 03:36:23;;;;;;;9.40;9.10;;;12.60;99.90;;;;;;5074387;28;20224;-89
2022/07/17 03:42:48;;;;;;;9.50;9.20;;;12.60;99.90;;;;;;4982731;28;20409;-90
2022/07/17 03:45:54;;;;;;;9.50;9.20;;;12.50;99.90;;;;;;4998185;28;20259;-89
2022/07/17 03:49:14;;;;;;;9.27;8.97;;;12.50;99.90;;;;;;5079781;28;20295;-89
2022/07/17 03:55:17;;;;;;;9.40;9.10;;;12.50;99.90;;;;;;5072271;28;20237;-88
2022/07/17 04:05:16;;;;;;;9.50;9.20;;;12.40;99.90;;;;;;5088158;28;20232;-88
2022/07/17 04:11:24;;;;;;;9.53;9.23;;;12.40;99.90;;;;;;5085140;28;20228;-89
2022/07/17 04:17:32;;;;;;;9.50;9.20;;;12.50;99.90;;;;;;5083062;28;20360;-88
2022/07/17 04:20:38;;;;;;;9.57;9.27;;;12.60;99.90;;;;;;5082808;28;20230;-88
2022/07/17 04:26:57;;;;;;;9.70;9.40;;;12.60;99.90;;;;;;5082649;28;20287;-89
2022/07/17 04:29:51;;;;;;;9.67;9.37;;;12.60;99.90;;;;;;5081770;28;20248;-88
2022/07/17 04:32:38;;;;;;;9.57;9.27;;;12.70;99.90;;;;;;5083374;28;20233;-88
2022/07/17 04:36:21;;;;;;;;;;;;;;;;;;;;;
2022/07/17 04:39:06;;;;;;;9.60;9.30;;;12.70;99.90;;;;;;5082763;28;20237;-89
2022/07/17 04:52:41;;;;;;;9.70;9.40;;;13.00;99.90;;;;;;5082044;28;20249;-89
2022/07/17 05:02:29;;;;;;;10.00;9.70;;;13.40;99.90;;;;;;5099980;28;20213;-86
2022/07/17 05:05:31;;;;;;;9.90;9.60;;;13.50;99.90;;;;;;5040998;28;20208;-87
2022/07/17 05:08:16;;;;;;;9.87;9.57;;;13.70;99.90;;;;;;4982348;28;20240;-85
2022/07/17 05:11:01;;;;;;;9.90;9.60;;;13.80;99.90;;;;;;5081239;28;20243;-85
2022/07/17 05:13:40;;;;;;;10.10;9.80;;;14.00;99.90;;;;;;5082305;28;20230;-88
2022/07/17 05:16:08;;;;;;;10.30;10.00;;;14.10;99.90;;;;;;5095143;28;20213;-81
2022/07/17 05:18:36;;;;;;;10.35;10.05;;;14.30;99.90;;;;;;5101188;28;20221;-78
2022/07/17 05:21:03;;;;;;;10.40;10.10;;;14.50;99.90;;;;;;5089259;28;20226;-81
2022/07/17 05:23:32;;;;;;;10.45;10.15;;;14.60;99.90;;;;;;5099293;28;20218;-79
2022/07/17 05:26:00;;;;;;;10.27;9.98;;;14.80;99.90;;;;;;5097607;28;20233;-82
2022/07/17 05:28:27;;;;;;;10.40;10.10;;;14.90;99.90;;;;;;5099096;28;20238;-82
2022/07/17 05:30:55;;;;;;;10.38;10.07;;;15.10;99.90;;;;;;5099171;28;20226;-83
2022/07/17 05:33:22;;;;;;;10.52;10.23;;;15.30;99.90;;;;;;5079932;28;20222;-81
2022/07/17 05:35:50;;;;;;;10.32;10.02;;;15.40;99.90;;;;;;5079308;28;20239;-81
2022/07/17 05:38:17;;;;;;;10.30;10.00;;;15.50;99.90;;;;;;5077650;28;20298;-80
2022/07/17 05:40:46;;;;;;;10.35;10.05;;;15.60;99.90;;;;;;5073249;28;20301;-81
2022/07/17 05:43:14;;;;;;;10.38;10.07;;;15.70;99.90;;;;;;5067314;28;20234;-80
2022/07/17 05:45:41;;;;;;;10.50;10.20;;;15.70;99.90;;;;;;5074732;28;20265;-82
2022/07/17 05:48:09;;;;;;;10.32;10.02;;;15.70;99.90;;;;;;5083628;28;20269;-82
2022/07/17 05:50:37;;;;;;;10.40;10.10;;;15.80;99.90;;;;;;5083042;28;20268;-82
2022/07/17 05:53:04;;;;;;;10.07;9.77;;;15.90;99.90;;;;;;5083320;28;20325;-82
2022/07/17 05:55:32;;;;;;;10.30;10.00;;;16.00;99.90;;;;;;5085081;28;20230;-81
2022/07/17 05:58:01;;;;;;;10.32;10.02;;;16.10;99.90;;;;;;5077850;28;20328;-83
2022/07/17 06:00:29;;;;;;;10.20;9.90;;;16.30;99.90;;;;;;5082947;28;20282;-83
2022/07/17 06:02:57;;;;;;;10.23;9.93;;;16.40;99.90;;;;;;5083553;28;20305;-82
2022/07/17 06:05:25;;;;;;;10.10;9.80;;;16.50;99.90;;;;;;5067147;28;20303;-82
2022/07/17 06:07:53;;;;;;;10.20;9.90;;;16.60;99.90;;;;;;5084346;28;20238;-82
2022/07/17 06:10:21;;;;;;;10.20;9.90;;;16.80;99.90;;;;;;5082513;28;20229;-84
2022/07/17 06:12:49;;;;;;;10.30;10.00;;;16.90;99.90;;;;;;5081820;28;20226;-82
2022/07/17 06:15:18;;;;;;;10.25;9.95;;;17.00;99.90;;;;;;5081374;28;20222;-82
2022/07/17 06:17:46;;;;;;;10.30;10.00;;;17.10;99.90;;;;;;5081406;28;20336;-82
2022/07/17 06:20:14;;;;;;;10.30;10.00;;;17.20;99.90;;;;;;5081163;28;20317;-83
2022/07/17 06:22:42;;;;;;;10.43;10.13;;;17.20;99.90;;;;;;5082114;28;20236;-82
2022/07/17 06:25:11;;;;;;;10.27;9.98;;;17.30;99.90;;;;;;5081560;28;20230;-83
2022/07/17 06:27:40;;;;;;;10.27;9.98;;;17.50;99.90;;;;;;5081003;28;20305;-83
2022/07/17 06:30:10;;;;;;;10.20;9.90;;;17.60;99.90;;;;;;5082431;28;20260;-83
2022/07/17 06:32:39;;;;;;;10.10;9.80;;;17.70;99.90;;;;;;5081639;28;20261;-83
2022/07/17 06:35:08;;;;;;;10.07;9.77;;;17.80;99.90;;;;;;5082736;28;20309;-84
2022/07/17 06:37:36;;;;;;;10.02;9.73;;;17.80;99.90;;;;;;5082123;28;20240;-83
2022/07/17 06:40:06;;;;;;;10.07;9.77;;;17.80;99.90;;;;;;5081849;28;20257;-82
2022/07/17 06:42:34;;;;;;;10.10;9.80;;;18.00;99.90;;;;;;5081646;28;20716;-82
2022/07/17 06:45:02;;;;;;;10.27;9.98;;;18.10;99.90;;;;;;5080324;28;20257;-83
2022/07/17 06:47:29;;;;;;;10.50;10.20;;;18.30;99.90;;;;;;5075040;28;20253;-83
2022/07/17 06:49:58;;;;;;;10.50;10.20;;;18.30;99.90;;;;;;5080962;28;20241;-87
2022/07/17 06:52:26;;;;;;;10.60;10.30;;;18.40;99.90;;;;;;5079188;28;20616;-81
2022/07/17 06:54:53;;;;;;;10.50;10.20;;;18.40;99.90;;;;;;5080311;28;20322;-80
2022/07/17 06:57:21;;;;;;;10.15;9.85;;;18.50;99.90;;;;;;5079999;28;20332;-81
2022/07/17 06:59:48;;;;;;;10.20;9.90;;;18.50;99.90;;;;;;5081743;28;20257;-82
2022/07/17 07:02:16;;;;;;;10.20;9.90;;;18.40;99.90;;;;;;5080344;28;20245;-82
2022/07/17 07:04:44;;;;;;;10.30;10.00;;;18.60;99.90;;;;;;5080343;28;20764;-82
2022/07/17 07:07:13;;;;;;;10.48;10.18;;;18.80;99.90;;;;;;5079545;28;20229;-80
2022/07/17 07:09:41;;;;;;;10.40;10.10;;;18.80;99.90;;;;;;5080126;28;20259;-80
2022/07/17 07:12:08;;;;;;;10.40;10.10;;;18.80;99.90;;;;;;5079857;28;20222;-80
2022/07/17 07:14:36;;;;;;;10.10;9.80;;;18.80;99.90;;;;;;5079755;28;20225;-81
2022/07/17 07:17:05;;;;;;;10.13;9.82;;;18.90;99.90;;;;;;5080766;28;20303;-81
2022/07/17 07:19:32;;;;;;;10.40;10.10;;;19.00;99.90;;;;;;5126653;22;20225;-80
2022/07/17 07:22:00;;;;;;;10.07;9.77;;;19.20;99.90;;;;;;5104873;28;20237;-80
2022/07/17 07:24:29;;;;;;;10.00;9.70;;;19.30;99.90;;;;;;5103041;28;20229;-80
2022/07/17 07:26:56;;;;;;;10.00;9.70;;;19.50;99.90;;;;;;5102946;28;20234;-80
2022/07/17 07:29:23;;;;;;;10.10;9.80;;;19.30;99.90;;;;;;5101941;28;20324;-81
2022/07/17 07:31:51;;;;;;;10.38;10.07;;;19.30;99.90;;;;;;5106088;28;20240;-81
2022/07/17 07:34:19;;;;;;;10.10;9.80;;;19.40;99.90;;;;;;5107048;28;20260;-80
2022/07/17 07:36:48;;;;;;;10.23;9.93;;;19.60;99.90;;;;;;5107073;28;20286;-81
2022/07/17 07:39:18;;;;;;;10.10;9.80;;;19.80;99.90;;;;;;5110994;28;20293;-81
2022/07/17 07:41:56;;;;;;;10.23;9.93;;;20.00;99.90;;;;;;5108521;28;20248;-81
2022/07/17 07:44:25;;;;;;;10.50;10.20;;;20.20;99.90;;;;;;5112500;28;20235;-80
2022/07/17 07:46:55;;;;;;;10.27;9.98;;;20.20;99.90;;;;;;5108197;28;20244;-81
2022/07/17 07:49:24;;;;;;;10.40;10.10;;;20.00;99.90;;;;;;5108119;28;20297;-81
2022/07/17 07:51:54;;;;;;;9.90;9.60;;;19.90;99.90;;;;;;5107829;28;20261;-81
2022/07/17 07:54:23;;;;;;;9.90;9.60;;;20.10;99.90;;;;;;5107591;28;20294;-79
2022/07/17 07:57:01;;;;;;;10.02;9.73;;;20.30;99.90;;;;;;5107897;28;20237;-80
2022/07/17 07:59:32;;;;;;;10.10;9.80;;;20.50;99.90;;;;;;5107724;28;20302;-81
2022/07/17 08:02:01;;;;;;;10.10;9.80;;;20.70;99.90;;;;;;5107483;28;20313;-81
2022/07/17 08:04:31;;;;;;;10.05;9.75;;;20.90;99.90;;;;;;5107765;28;20229;-80
2022/07/17 08:07:00;;;;;;;10.02;9.73;;;20.90;99.90;;;;;;5107882;28;20233;-81
2022/07/17 08:09:30;;;;;;;10.07;9.77;;;21.00;99.90;;;;;;5106814;28;20237;-81
2022/07/17 08:12:01;;;;;;;10.13;9.82;;;21.20;99.90;;;;;;5106807;28;20261;-80
2022/07/17 08:14:28;;;;;;;9.93;9.63;;;21.40;99.90;;;;;;5107078;28;20241;-81
2022/07/17 08:16:58;;;;;;;10.15;9.85;;;21.60;99.90;;;;;;5106533;28;20307;-79
2022/07/17 08:19:27;;;;;;;10.20;9.90;;;21.50;99.90;;;;;;5105905;28;20241;-81
2022/07/17 08:21:56;;;;;;;9.88;9.57;;;21.60;99.90;;;;;;5106482;28;20229;-81
2022/07/17 08:24:25;;;;;;;10.00;9.70;;;21.80;99.90;;;;;;5106569;28;20287;-81
2022/07/17 08:26:55;;;;;;;10.10;9.80;;;22.10;99.90;;;;;;5106686;28;20260;-82
2022/07/17 08:29:34;;;;;;;9.95;9.65;;;22.20;99.90;;;;;;5106614;28;20252;-81
2022/07/17 08:32:03;;;;;;;9.90;9.60;;;22.30;99.90;;;;;;5106521;28;20229;-81
2022/07/17 08:34:32;;;;;;;10.25;9.95;;;22.40;99.90;;;;;;5105877;28;20235;-81
2022/07/17 08:37:02;;;;;;;10.20;9.90;;;22.60;99.90;;;;;;5106111;28;20299;-81
2022/07/17 08:39:31;;;;;;;10.15;9.85;;;22.70;99.90;;;;;;5105335;28;20234;-80
2022/07/17 08:42:00;;;;;;;10.05;9.75;;;22.90;99.90;;;;;;5105202;28;20234;-81
2022/07/17 08:44:39;;;;;;;10.32;10.02;;;22.80;99.90;;;;;;5105357;28;20253;-80
2022/07/17 08:47:09;;;;;;;10.13;9.82;;;23.00;99.90;;;;;;5105258;28;20243;-82
2022/07/17 08:49:40;;;;;;;10.32;10.02;;;23.30;99.90;;;;;;5105133;28;20226;-81
2022/07/17 08:52:08;;;;;;;10.20;9.90;;;23.60;99.90;;;;;;5105798;28;20225;-82
2022/07/17 08:54:37;;;;;;;10.20;9.90;;;23.60;99.90;;;;;;5105324;28;20252;-81
2022/07/17 08:57:06;;;;;;;10.20;9.90;;;23.50;99.90;;;;;;5106116;28;20228;-80
2022/07/17 08:59:38;;;;;;;10.23;9.93;;;23.50;99.90;;;;;;5104930;28;20248;-81
2022/07/17 09:02:06;;;;;;;10.45;10.15;;;24.00;99.90;;;;;;5105830;28;20218;-82
2022/07/17 09:04:34;;;;;;;10.10;9.80;;;24.10;99.90;;;;;;5105339;28;20225;-81
2022/07/17 09:07:04;;;;;;;10.13;9.82;;;23.80;99.90;;;;;;5106120;28;20240;-81
2022/07/17 09:09:33;;;;;;;10.20;9.90;;;23.70;99.90;;;;;;5110483;28;20293;-81
2022/07/17 09:12:03;;;;;;;10.32;10.02;;;24.10;99.90;;;;;;5107595;28;20240;-80
2022/07/17 09:14:43;;;;;;;10.25;9.95;;;24.70;99.90;;;;;;5107278;28;20231;-82
2022/07/17 09:17:12;;;;;;;10.30;10.00;;;25.00;99.90;;;;;;5106807;28;20233;-80
2022/07/17 09:19:45;;;;;;;10.40;10.10;;;25.20;99.90;;;;;;5106065;28;20255;-81
2022/07/17 09:22:20;;;;;;;10.35;10.05;;;25.30;99.90;;;;;;5106226;28;20210;-81
2022/07/17 09:24:51;;;;;;;10.35;10.05;;;25.60;99.90;;;;;;5105901;28;20240;-81
2022/07/17 09:27:37;;;;;;;10.20;9.90;;;25.90;99.90;;;;;;5105865;28;20265;-82
2022/07/17 09:30:15;;;;;;;10.07;9.77;;;26.20;99.90;;;;;;5105771;28;20221;-81
2022/07/17 09:32:43;;;;;;;10.20;9.90;;;26.40;99.90;;;;;;5104574;28;20226;-82
2022/07/17 09:35:15;;;;;;;10.05;9.75;;;26.60;99.90;;;;;;5105993;28;20233;-82
2022/07/17 09:37:43;;;;;;;10.20;9.90;;;26.70;99.90;;;;;;5106068;28;20229;-81
2022/07/17 09:41:09;;;;;;;10.15;9.85;;;26.70;99.90;;;;;;5105346;28;20234;-82
2022/07/17 09:42:59;;;;;;;10.30;10.00;;;26.90;99.90;;;;;;5104696;28;20222;-81
2022/07/17 09:45:38;;;;;;;10.23;9.93;;;27.10;99.90;;;;;;5104610;28;20231;-82
2022/07/17 09:48:06;;;;;;;10.27;9.98;;;27.00;99.90;;;;;;5104709;28;20260;-82
2022/07/17 09:50:36;;;;;;;10.10;9.80;;;27.30;99.90;;;;;;5104676;28;20241;-81
2022/07/17 09:53:05;;;;;;;10.30;10.00;;;27.50;99.90;;;;;;5104740;28;20228;-81
2022/07/17 09:55:35;;;;;;;10.27;9.98;;;27.60;99.90;;;;;;5103037;28;20324;-82
2022/07/17 09:58:04;;;;;;;10.45;10.15;;;27.40;99.90;;;;;;5104190;28;20309;-82
2022/07/17 10:00:44;;;;;;;10.30;10.00;;;27.30;99.90;;;;;;5104001;28;20684;-82
2022/07/17 10:03:12;;;;;;;10.32;10.02;;;26.50;99.90;;;;;;5105127;28;20213;-82
2022/07/17 10:05:42;;;;;;;10.30;10.00;;;26.20;99.90;;;;;;5107416;28;20507;-81
2022/07/17 10:08:12;;;;;;;10.07;9.77;;;26.20;99.90;;;;;;5111446;28;20313;-81
2022/07/17 10:10:41;;;;;;;10.10;9.80;;;26.60;99.90;;;;;;5114401;28;20292;-81
2022/07/17 10:13:10;;;;;;;9.88;9.57;;;27.20;99.90;;;;;;5108827;28;20274;-80
2022/07/17 10:15:50;;;;;;;10.00;9.70;;;27.70;99.90;;;;;;5105702;28;20244;-82
2022/07/17 10:18:17;;;;;;;9.70;9.40;;;27.60;99.90;;;;;;5104342;28;20253;-81
2022/07/17 10:20:47;;;;;;;9.82;9.52;;;27.40;99.90;;;;;;5105698;28;20232;-82
2022/07/17 10:23:17;;;;;;;9.82;9.52;;;27.60;99.90;;;;;;5105461;28;20233;-81
2022/07/17 10:25:46;;;;;;;10.10;9.80;;;27.80;99.90;;;;;;5104445;28;20256;-83
2022/07/17 10:28:16;;;;;;;9.70;9.40;;;28.10;99.90;;;;;;5104648;28;20233;-82
2022/07/17 10:30:47;;;;;;;9.88;9.57;;;28.30;99.90;;;;;;5103875;28;20240;-82
2022/07/17 10:33:18;;;;;;;9.70;9.40;;;28.60;99.90;;;;;;5104745;28;20218;-82
2022/07/17 10:35:54;;;;;;;9.70;9.40;;;28.20;99.90;;;;;;5103916;28;20237;-82
2022/07/17 10:38:22;;;;;;;9.90;9.60;;;28.00;99.90;;;;;;5104239;28;20305;-82
2022/07/17 10:41:01;;;;;;;9.90;9.60;;;28.20;99.90;;;;;;5104930;28;20340;-82
2022/07/17 10:43:49;;;;;;;9.90;9.60;;;28.30;99.90;;;;;;5104682;28;20228;-81
2022/07/17 10:46:19;;;;;;;9.75;9.45;;;28.40;99.90;;;;;;5104612;28;20248;-82
2022/07/17 10:48:56;;;;;;;10.20;9.90;;;28.70;99.90;;;;;;5104090;28;20237;-82
2022/07/17 10:51:27;;;;;;;10.00;9.70;;;29.10;99.90;;;;;;5103758;28;20256;-83
2022/07/17 10:54:04;;;;;;;10.20;9.90;;;29.10;99.90;;;;;;5104585;28;20240;-83
2022/07/17 10:56:32;;;;;;;10.10;9.80;;;29.20;99.90;;;;;;5103792;28;20236;-81
2022/07/17 10:59:04;;;;;;;9.98;9.68;;;29.10;99.90;;;;;;5103313;28;20237;-82
2022/07/17 11:01:34;;;;;;;10.20;9.90;;;28.90;99.90;;;;;;5103535;28;20238;-82
2022/07/17 11:04:04;;;;;;;10.30;10.00;;;29.00;99.40;;;;;;5103706;28;20264;-82
2022/07/17 11:06:40;;;;;;;10.23;9.93;;;29.00;99.90;;;;;;5103783;28;20265;-82
2022/07/17 11:09:10;;;;;;;10.20;9.90;;;29.10;99.90;;;;;;5104145;28;20237;-81
2022/07/17 11:11:40;;;;;;;10.20;9.90;;;29.30;99.90;;;;;;5105379;28;20245;-82
2022/07/17 11:14:20;;;;;;;10.15;9.85;;;29.30;99.60;;;;;;5105325;28;20275;-82
2022/07/17 11:17:14;;;;;;;10.00;9.70;;;28.90;99.10;;;;;;5103968;28;20222;-82
2022/07/17 11:19:43;;;;;;;10.00;9.70;;;28.60;98.40;;;;;;5103506;28;20260;-82
2022/07/17 11:22:13;;;;;;;10.20;9.90;;;28.90;99.70;;;;;;5103552;28;20225;-83
2022/07/17 11:24:43;;;;;;;10.10;9.80;;;29.30;97.60;;;;;;5103099;28;20225;-83
2022/07/17 11:27:13;;;;;;;10.30;10.00;;;29.40;99.10;;;;;;5104973;28;20229;-82
2022/07/17 11:29:42;;;;;;;10.35;10.05;;;29.50;96.20;;;;;;5104994;28;20229;-83
2022/07/17 11:32:12;;;;;;;10.27;9.98;;;29.60;96.70;;;;;;5104512;28;20248;-82
2022/07/17 11:34:40;;;;;;;10.40;10.10;;;29.70;97.10;;;;;;5103007;28;20229;-83
2022/07/17 11:37:09;;;;;;;10.32;10.02;;;29.40;96.40;;;;;;5104476;28;20253;-83
2022/07/17 11:39:47;;;;;;;10.27;9.98;;;29.50;97.40;;;;;;5102477;28;20240;-81
2022/07/17 11:42:18;;;;;;;10.20;9.90;;;29.90;96.50;;;;;;5103275;28;20308;-81
2022/07/17 11:44:46;;;;;;;10.27;9.98;;;30.10;97.00;;;;;;5102648;28;20221;-81
2022/07/17 11:47:26;;;;;;;10.40;10.10;;;30.40;96.40;;;;;;5102701;28;20237;-82
2022/07/17 11:50:05;;;;;;;10.18;9.88;;;30.60;96.90;;;;;;5102114;28;20240;-81
2022/07/17 11:52:43;;;;;;;10.27;9.98;;;30.90;96.60;;;;;;5101962;28;20241;-81
2022/07/17 11:55:11;;;;;;;10.45;10.15;;;31.40;95.40;;;;;;5102101;28;20229;-80
2022/07/17 11:57:48;;;;;;;10.30;10.00;;;31.20;94.40;;;;;;5102340;28;20226;-81
2022/07/17 12:00:19;;;;;;;10.30;10.00;;;30.90;95.00;;;;;;5104382;28;20282;-81
2022/07/17 12:03:05;;;;;;;10.18;9.88;;;31.00;94.20;;;;;;5105022;28;20237;-80
2022/07/17 12:05:35;;;;;;;10.35;10.05;;;31.30;94.60;;;;;;5103447;28;20229;-81
2022/07/17 12:08:03;;;;;;;10.00;9.70;;;31.70;94.80;;;;;;5103177;28;20279;-81
2022/07/17 12:10:33;;;;;;;10.05;9.75;;;31.40;93.40;;;;;;5104341;28;20268;-81
2022/07/17 12:13:04;;;;;;;9.90;9.60;;;31.80;92.80;;;;;;5111238;28;20228;-80
2022/07/17 12:15:41;;;;;;;9.82;9.52;;;32.00;92.30;;;;;;5107430;28;20252;-81
2022/07/17 12:18:29;;;;;;;10.07;9.77;;;32.00;92.60;;;;;;5105357;28;20291;-82
2022/07/17 12:21:00;;;;;;;10.27;9.98;;;31.90;92.00;;;;;;5106935;28;20236;-81
2022/07/17 12:23:30;;;;;;;10.07;9.77;;;32.10;91.80;;;;;;5106855;28;20340;-82
2022/07/17 12:26:07;;;;;;;10.32;10.02;;;32.00;92.10;;;;;;5106032;28;20697;-82
2022/07/17 12:28:36;;;;;;;10.27;9.98;;;32.30;92.50;;;;;;5106482;28;20233;-82
2022/07/17 12:31:04;;;;;;;10.20;9.90;;;32.60;91.80;;;;;;5105685;28;20261;-81
2022/07/17 12:33:42;;;;;;;10.10;9.80;;;32.60;91.10;;;;;;5106873;28;20302;-81
2022/07/17 12:36:12;;;;;;;10.25;9.95;;;32.60;90.50;;;;;;5106050;28;20306;-81
2022/07/17 12:38:41;;;;;;;10.15;9.85;;;32.40;91.10;;;;;;5105741;28;20225;-81
2022/07/17 12:41:11;;;;;;;9.98;9.68;;;31.80;90.30;;;;;;5106498;28;20292;-81
2022/07/17 12:43:40;;;;;;;10.18;9.88;;;31.60;90.10;;;;;;5105637;28;20237;-81
2022/07/17 12:46:09;;;;;;;10.43;10.13;;;31.70;90.30;;;;;;5105349;28;20236;-82
2022/07/17 12:48:48;;;;;;;10.40;10.10;;;31.90;90.30;;;;;;5105845;28;20320;-82
2022/07/17 12:51:17;;;;;;;10.43;10.13;;;32.30;90.00;;;;;;5106420;28;20260;-82
2022/07/17 12:53:46;;;;;;;10.13;9.82;;;32.70;89.50;;;;;;5105818;28;20218;-82
2022/07/17 12:56:15;;;;;;;10.30;10.00;;;32.90;87.70;;;;;;5105552;28;20234;-82
2022/07/17 12:58:45;;;;;;;10.25;9.95;;;33.00;86.10;;;;;;5105855;28;20740;-82
2022/07/17 13:01:14;;;;;;;10.40;10.10;;;32.80;81.00;;;;;;5107662;28;20221;-82
2022/07/17 13:03:54;;;;;;;10.20;9.90;;;32.50;81.70;;;;;;5106170;28;20259;-82
2022/07/17 13:06:22;;;;;;;10.25;9.95;;;32.60;81.60;;;;;;5105080;28;20225;-82
2022/07/17 13:08:51;;;;;;;10.20;9.90;;;32.80;86.30;;;;;;5104934;28;20249;-81
2022/07/17 13:11:21;;;;;;;10.20;9.90;;;33.10;86.70;;;;;;5104891;28;20279;-81
2022/07/17 13:13:53;;;;;;;10.40;10.10;;;33.40;85.40;;;;;;5104982;28;20334;-81
2022/07/17 13:16:22;;;;;;;10.57;10.27;;;33.50;86.90;;;;;;5105251;28;20259;-81
2022/07/17 13:18:51;;;;;;;10.30;10.00;;;33.40;89.70;;;;;;5119663;22;20261;-83
2022/07/17 13:21:19;;;;;;;10.60;10.30;;;33.60;84.80;;;;;;5087875;28;20282;-84
2022/07/17 13:23:46;;;;;;;10.32;10.02;;;33.80;87.20;;;;;;5083267;28;20234;-83
2022/07/17 13:26:14;;;;;;;10.25;9.95;;;33.90;86.90;;;;;;5083555;28;20245;-82
2022/07/17 13:28:42;;;;;;;10.13;9.82;;;33.60;81.60;;;;;;5083917;28;20292;-83
2022/07/17 13:31:09;;;;;;;10.20;9.90;;;33.50;79.50;;;;;;5084169;28;20230;-83
2022/07/17 13:33:37;;;;;;;10.25;9.95;;;33.50;77.20;;;;;;5082844;28;20301;-83
2022/07/17 13:36:07;;;;;;;10.00;9.70;;;33.40;77.40;;;;;;5083381;28;20237;-84
2022/07/17 13:38:35;;;;;;;10.18;9.88;;;33.50;80.30;;;;;;5082996;28;20290;-83
2022/07/17 13:41:02;;;;;;;10.27;9.98;;;33.80;78.10;;;;;;5089822;28;20226;-83
2022/07/17 13:43:30;;;;;;;10.70;10.40;;;34.30;79.20;;;;;;5094706;28;20285;-83
2022/07/17 13:46:00;;;;;;;10.63;10.32;;;34.60;79.30;;;;;;5093343;28;20217;-84
2022/07/17 13:48:28;;;;;;;10.73;10.43;;;34.30;76.80;;;;;;5095390;28;20265;-82
2022/07/17 13:50:59;;;;;;;10.60;10.30;;;33.90;76.70;;;;;;5084024;28;20262;-83
2022/07/17 13:53:29;;;;;;;10.50;10.20;;;34.20;77.60;;;;;;5088521;28;20238;-83
2022/07/17 13:55:56;;;;;;;10.38;10.07;;;34.50;76.40;;;;;;5097737;28;20212;-83
2022/07/17 13:58:24;;;;;;;10.60;10.30;;;34.80;77.20;;;;;;5089065;28;20234;-84
2022/07/17 14:00:52;;;;;;;10.70;10.40;;;34.50;75.60;;;;;;5085438;28;20230;-83
2022/07/17 14:03:22;;;;;;;10.60;10.30;;;34.20;77.00;;;;;;5083036;28;20233;-83
2022/07/17 14:05:49;;;;;;;10.85;10.55;;;34.40;76.30;;;;;;5083471;28;20233;-84
2022/07/17 14:08:17;;;;;;;10.80;10.50;;;34.70;76.20;;;;;;5083369;28;20250;-83
2022/07/17 14:10:46;;;;;;;10.80;10.50;;;34.70;74.80;;;;;;5082745;28;20268;-84
2022/07/17 14:13:14;;;;;;;10.70;10.40;;;34.90;74.70;;;;;;5082619;28;20242;-83
2022/07/17 14:15:41;;;;;;;10.73;10.43;;;34.80;69.00;;;;;;5091194;28;20226;-84
2022/07/17 14:18:09;;;;;;;10.68;10.38;;;34.90;69.50;;;;;;5100533;28;20226;-83